Time;durP1;ratioP1;P1;durP2;ratioP2;P2;SDS_P1;SDS_P2;PMS_P1;PMS_P2;Temp;Humidity;BMP_temperature;BMP_pressure;BME280_temperature;BME280_humidity;BME280_pressure;Samples;Min_cycle;Max_cycle;Signal;HPM_P1;HPM_P2
2023/01/14 00:01:03;;;;;;;;;;;;;;;;;;4442592;32;20021;-76
2023/01/14 00:03:30;;;;;;;22.98;3.53;;;;;;;;;;4441890;32;19980;-78
2023/01/14 00:05:56;;;;;;;13.93;3.05;;;;;;;;;;4440896;32;20021;-78
2023/01/14 00:08:21;;;;;;;;;;;;;;;;;;4441501;32;20444;-78
2023/01/14 00:10:46;;;;;;;17.92;3.42;;;;;;;;;;4455485;32;19932;-78
2023/01/14 00:13:11;;;;;;;;;;;;;;;;;;4441389;32;20025;-78
2023/01/14 00:15:36;;;;;;;16.15;3.08;;;;;;;;;;4438642;32;20021;-77
2023/01/14 00:18:01;;;;;;;;;;;;;;;;;;4447766;32;20168;-77
2023/01/14 00:20:30;;;;;;;18.90;4.18;;;;;;;;;;4441885;32;19940;-79
2023/01/14 00:22:55;;;;;;;20.50;4.97;;;;;;;;;;4432395;32;20078;-78
2023/01/14 00:25:20;;;;;;;;;;;;;;;;;;4446885;32;20064;-79
2023/01/14 00:27:45;;;;;;;23.38;3.75;;;;;;;;;;4441818;32;19952;-77
2023/01/14 00:30:11;;;;;;;;;;;;;;;;;;4433286;32;20411;-78
2023/01/14 00:32:36;;;;;;;17.75;4.05;;;;;;;;;;4439791;32;19941;-78
2023/01/14 00:35:01;;;;;;;;;;;;;;;;;;4425318;32;20033;-78
2023/01/14 00:37:26;;;;;;;16.23;4.00;;;;;;;;;;4439110;32;19937;-78
2023/01/14 00:39:51;;;;;;;;;;;;;;;;;;4437425;32;20147;-78
2023/01/14 00:42:16;;;;;;;26.75;4.68;;;;;;;;;;4438943;32;20300;-78
2023/01/14 00:44:42;;;;;;;29.52;5.62;;;;;;;;;;4437358;32;20093;-78
2023/01/14 00:47:07;;;;;;;;;;;;;;;;;;4439210;32;20068;-78
2023/01/14 00:49:32;;;;;;;23.35;4.32;;;;;;;;;;4438910;32;19936;-78
2023/01/14 00:52:00;;;;;;;;;;;;;;;;;;4439515;32;20151;-79
2023/01/14 00:54:26;;;;;;;18.95;4.35;;;;;;;;;;4437238;32;19928;-79
2023/01/14 00:56:51;;;;;;;;;;;;;;;;;;4437975;32;20048;-78
2023/01/14 00:59:18;;;;;;;21.25;4.35;;;;;;;;;;4439889;32;20348;-78
2023/01/14 01:01:43;;;;;;;30.23;4.90;;;;;;;;;;4454058;32;20025;-78
2023/01/14 01:04:08;;;;;;;;;;;;;;;;;;4440387;32;20519;-79
2023/01/14 01:06:33;;;;;;;21.27;4.10;;;;;;;;;;4455346;32;19981;-79
2023/01/14 01:09:00;;;;;;;;;;;;;;;;;;4441941;32;20120;-79
2023/01/14 01:11:25;;;;;;;26.25;5.25;;;;;;;;;;4453976;32;19936;-78
2023/01/14 01:13:50;;;;;;;;;;;;;;;;;;4454127;32;20018;-79
2023/01/14 01:16:16;;;;;;;25.30;5.25;;;;;;;;;;4454463;32;19951;-78
2023/01/14 01:18:42;;;;;;;20.40;4.90;;;;;;;;;;4456530;32;20226;-78
2023/01/14 01:21:07;;;;;;;;;;;;;;;;;;4455126;32;20044;-79
2023/01/14 01:23:40;;;;;;;26.20;4.70;;;;;;;;;;4441671;32;19949;-78
2023/01/14 01:26:05;;;;;;;28.67;5.47;;;;;;;;;;4443396;32;20057;-79
2023/01/14 01:28:30;;;;;;;;;;;;;;;;;;4459841;32;20029;-78
2023/01/14 01:30:59;;;;;;;21.30;4.15;;;;;;;;;;4459564;32;20246;-78
2023/01/14 01:33:24;;;;;;;27.58;4.65;;;;;;;;;;4459642;32;20169;-79
2023/01/14 01:35:49;;;;;;;;;;;;;;;;;;4460204;32;20029;-78
2023/01/14 01:38:14;;;;;;;27.58;4.55;;;;;;;;;;4459433;32;19940;-78
2023/01/14 01:40:39;;;;;;;;;;;;;;;;;;4451184;32;20121;-77
2023/01/14 01:43:08;;;;;;;22.10;3.70;;;;;;;;;;4448108;32;19970;-78
2023/01/14 01:45:38;;;;;;;24.15;5.78;;;;;;;;;;4447311;32;20133;-78
2023/01/14 01:48:05;;;;;;;32.95;5.37;;;;;;;;;;4442624;32;20056;-78
2023/01/14 01:50:31;;;;;;;28.20;4.43;;;;;;;;;;4454732;32;20362;-78
2023/01/14 01:52:57;;;;;;;;;;;;;;;;;;4440111;32;20093;-79
2023/01/14 01:55:23;;;;;;;28.62;5.37;;;;;;;;;;4438750;32;19940;-79
2023/01/14 01:57:55;;;;;;;21.48;4.72;;;;;;;;;;4439715;32;20065;-79
2023/01/14 02:00:20;;;;;;;27.02;4.12;;;;;;;;;;4438134;32;20090;-78
2023/01/14 02:02:46;;;;;;;;;;;;;;;;;;4441964;32;20017;-78
2023/01/14 02:05:11;;;;;;;27.23;4.28;;;;;;;;;;4455467;32;19940;-79
2023/01/14 02:07:36;;;;;;;;;;;;;;;;;;4437245;32;20416;-78
2023/01/14 02:10:03;;;;;;;24.63;4.43;;;;;;;;;;4424511;32;19946;-78
2023/01/14 02:12:29;;;;;;;21.00;4.05;;;;;;;;;;4437381;32;20061;-78
2023/01/14 02:14:54;;;;;;;;;;;;;;;;;;4438724;32;20402;-78
2023/01/14 02:17:32;;;;;;;25.67;3.67;;;;;;;;;;4438558;32;20003;-79
2023/01/14 02:20:23;;;;;;;29.80;5.12;;;;;;;;;;4453420;32;20530;-79
2023/01/14 02:23:07;;;;;;;37.00;4.93;;;;;;;;;;4455133;32;20063;-79
2023/01/14 02:25:51;;;;;;;18.58;4.55;;;;;;;;;;4438140;32;20047;-79
2023/01/14 02:28:24;;;;;;;34.03;6.35;;;;;;;;;;4438543;32;20071;-78
2023/01/14 02:30:54;;;;;;;30.52;4.40;;;;;;;;;;4453269;32;20491;-79
2023/01/14 02:33:27;;;;;;;31.00;5.00;;;;;;;;;;4452682;32;20021;-78
2023/01/14 02:35:58;;;;;;;22.75;4.80;;;;;;;;;;4452074;32;20097;-78
2023/01/14 02:38:32;;;;;;;28.85;5.45;;;;;;;;;;4439370;32;20448;-79
2023/01/14 02:41:00;;;;;;;25.20;4.57;;;;;;;;;;4455384;32;20080;-79
2023/01/14 02:46:29;;;;;;;31.37;5.57;;;;;;;;;;4437204;32;20056;-78
2023/01/14 02:48:55;;;;;;;26.52;4.68;;;;;;;;;;4435724;32;20021;-79
2023/01/14 02:51:20;;;;;;;;;;;;;;;;;;4458095;32;20135;-78
2023/01/14 02:53:45;;;;;;;28.48;7.28;;;;;;;;;;4444966;32;20344;-78
2023/01/14 02:56:10;;;;;;;;;;;;;;;;;;4456918;32;20120;-78
2023/01/14 02:58:45;;;;;;;25.02;5.28;;;;;;;;;;4442605;32;19945;-79
2023/01/14 03:01:10;;;;;;;27.20;5.55;;;;;;;;;;4453439;32;20033;-78
2023/01/14 03:03:36;;;;;;;;;;;;;;;;;;4450412;32;20118;-77
2023/01/14 03:06:20;;;;;;;32.20;4.57;;;;;;;;;;4457361;32;19975;-78
2023/01/14 03:08:48;;;;;;;35.78;5.93;;;;;;;;;;4458096;32;20124;-78
2023/01/14 03:11:13;;;;;;;33.50;4.93;;;;;;;;;;4458034;32;20047;-78
2023/01/14 03:13:38;;;;;;;;;;;;;;;;;;4457625;32;20057;-77
2023/01/14 03:16:10;;;;;;;42.22;7.35;;;;;;;;;;4442753;32;19932;-77
2023/01/14 03:18:44;;;;;;;28.05;6.00;;;;;;;;;;4457512;32;20120;-79
2023/01/14 03:21:15;;;;;;;38.65;7.45;;;;;;;;;;4455706;32;20116;-79
2023/01/14 03:24:01;;;;;;;32.70;5.25;;;;;;;;;;4430296;32;20082;-79
2023/01/14 03:26:28;;;;;;;32.53;6.22;;;;;;;;;;4443347;32;20037;-79
2023/01/14 03:28:55;;;;;;;42.83;6.55;;;;;;;;;;4441065;32;20037;-79
2023/01/14 03:31:22;;;;;;;44.20;6.43;;;;;;;;;;4432474;32;20030;-78
2023/01/14 03:33:50;;;;;;;33.45;6.32;;;;;;;;;;4443238;32;20052;-78
2023/01/14 03:36:18;;;;;;;30.65;6.20;;;;;;;;;;4444398;32;20051;-79
2023/01/14 03:38:50;;;;;;;41.65;7.28;;;;;;;;;;4443920;32;20037;-79
2023/01/14 03:42:17;;;;;;;37.47;6.75;;;;;;;;;;4447017;32;20033;-78
2023/01/14 03:44:05;;;;;;;34.17;6.60;;;;;;;;;;4456063;32;20056;-78
2023/01/14 03:46:30;;;;;;;38.97;6.95;;;;;;;;;;4443080;32;20097;-79
2023/01/14 03:48:55;;;;;;;;;;;;;;;;;;4444646;32;20489;-78
2023/01/14 03:51:24;;;;;;;29.73;5.93;;;;;;;;;;4443549;32;19966;-79
2023/01/14 03:54:04;;;;;;;46.15;5.87;;;;;;;;;;4443384;32;20090;-77
2023/01/14 03:56:54;;;;;;;43.30;6.43;;;;;;;;;;4458080;32;20096;-79
2023/01/14 03:59:22;;;;;;;43.03;6.50;;;;;;;;;;4441185;32;20021;-78
2023/01/14 04:01:50;;;;;;;35.10;7.00;;;;;;;;;;4441491;32;20029;-77
2023/01/14 04:04:16;;;;;;;40.10;6.55;;;;;;;;;;4442867;32;20056;-79
2023/01/14 04:06:42;;;;;;;;;;;;;;;;;;4445032;32;20033;-78
2023/01/14 04:09:08;;;;;;;43.20;7.57;;;;;;;;;;4455959;32;19947;-78
2023/01/14 04:11:33;;;;;;;32.85;6.35;;;;;;;;;;4440360;32;20403;-78
2023/01/14 04:16:43;;;;;;;45.65;7.37;;;;;;;;;;4457240;32;19956;-80
2023/01/14 04:19:08;;;;;;;;;;;;;;;;;;4446290;32;20056;-79
2023/01/14 04:21:33;;;;;;;48.17;8.55;;;;;;;;;;4447737;32;19943;-79
2023/01/14 04:23:58;;;;;;;;;;;;;;;;;;4442889;32;20171;-79
2023/01/14 04:26:23;;;;;;;30.40;6.80;;;;;;;;;;4442314;32;19936;-79
2023/01/14 04:28:48;;;;;;;;;;;;;;;;;;4438031;32;20215;-79
2023/01/14 04:31:14;;;;;;;38.42;6.78;;;;;;;;;;4440563;32;20359;-79
2023/01/14 04:33:39;;;;;;;;;;;;;;;;;;4440227;32;20426;-78
2023/01/14 04:36:04;;;;;;;55.92;8.05;;;;;;;;;;4440427;32;19940;-79
2023/01/14 04:38:29;;;;;;;;;;;;;;;;;;4440098;32;20108;-78
2023/01/14 04:40:54;;;;;;;44.35;7.20;;;;;;;;;;4439322;32;19992;-79
2023/01/14 04:43:20;;;;;;;;;;;;;;;;;;4439838;32;20120;-79
2023/01/14 04:45:48;;;;;;;42.13;7.12;;;;;;;;;;4441014;32;19974;-79
2023/01/14 04:48:13;;;;;;;42.95;6.60;;;;;;;;;;4453054;32;20132;-78
2023/01/14 04:50:44;;;;;;;;;;;;;;;;;;4439399;32;20397;-78
2023/01/14 04:53:20;;;;;;;34.72;6.62;;;;;;;;;;4453421;32;20031;-78
2023/01/14 04:55:47;;;;;;;36.05;7.78;;;;;;;;;;4450769;32;20479;-79
2023/01/14 04:58:14;;;;;;;33.83;5.12;;;;;;;;;;4426403;32;20054;-79
2023/01/14 05:00:40;;;;;;;38.20;8.00;;;;;;;;;;4429835;32;20432;-79
2023/01/14 05:03:05;;;;;;;;;;;;;;;;;;4431624;32;20082;-79
2023/01/14 05:05:31;;;;;;;43.10;7.78;;;;;;;;;;4426651;32;19944;-79
2023/01/14 05:07:56;;;;;;;;;;;;;;;;;;4442973;32;20120;-79
2023/01/14 05:10:21;;;;;;;35.70;5.47;;;;;;;;;;4446992;32;20025;-78
2023/01/14 05:12:58;;;;;;;;;;;;;;;;;;4439165;32;20120;-79
2023/01/14 05:15:28;;;;;;;27.85;6.47;;;;;;;;;;4453317;32;19941;-79
2023/01/14 05:17:54;;;;;;;36.42;7.12;;;;;;;;;;4438572;32;20017;-78
2023/01/14 05:20:19;;;;;;;;;;;;;;;;;;4438825;32;20057;-78
2023/01/14 05:22:44;;;;;;;32.50;5.57;;;;;;;;;;4438597;32;19955;-78
2023/01/14 05:25:09;;;;;;;;;;;;;;;;;;4452786;32;20021;-79
2023/01/14 05:27:34;;;;;;;39.53;6.37;;;;;;;;;;4436515;32;19957;-79
2023/01/14 05:29:59;;;;;;;;;;;;;;;;;;4437630;32;20025;-79
2023/01/14 05:32:25;;;;;;;37.85;6.18;;;;;;;;;;4435314;32;20003;-79
2023/01/14 05:34:50;;;;;;;;;;;;;;;;;;4431071;32;20132;-78
2023/01/14 05:37:15;;;;;;;35.80;9.07;;;;;;;;;;4452413;32;19955;-79
2023/01/14 05:39:40;;;;;;;;;;;;;;;;;;4438386;32;20025;-79
2023/01/14 05:47:34;;;;;;;31.23;6.10;;;;;;;;;;4452244;32;20056;-79
2023/01/14 05:49:59;;;;;;;;;;;;;;;;;;4438332;32;20022;-79
2023/01/14 05:52:24;;;;;;;35.47;5.70;;;;;;;;;;4439544;32;19936;-79
2023/01/14 05:54:49;;;;;;;;;;;;;;;;;;4439462;32;20433;-79
2023/01/14 05:57:14;;;;;;;34.38;6.28;;;;;;;;;;4451934;32;19937;-78
2023/01/14 05:59:40;;;;;;;;;;;;;;;;;;4451963;32;20116;-79
2023/01/14 06:07:33;;;;;;;36.50;4.85;;;;;;;;;;4452453;32;20457;-79
2023/01/14 06:09:58;;;;;;;;;;;;;;;;;;4437893;32;20057;-78
2023/01/14 06:15:07;;;;;;;37.88;7.22;;;;;;;;;;4452472;32;20570;-79
2023/01/14 06:17:44;;;;;;;;;;;;;;;;;;4452930;32;20025;-79
2023/01/14 06:20:10;;;;;;;34.35;5.75;;;;;;;;;;4453377;32;19982;-78
2023/01/14 06:22:35;;;;;;;;;;;;;;;;;;4452072;32;20026;-79
2023/01/14 06:25:00;;;;;;;25.95;5.10;;;;;;;;;;4437833;32;19940;-80
2023/01/14 06:27:25;;;;;;;;;;;;;;;;;;4438957;32;20147;-78
2023/01/14 06:29:50;;;;;;;28.10;7.70;;;;;;;;;;4437647;32;19936;-78
2023/01/14 06:32:15;;;;;;;;;;;;;;;;;;4447353;32;20144;-78
2023/01/14 06:34:41;;;;;;;33.92;5.80;;;;;;;;;;4436672;32;19986;-78
2023/01/14 06:37:06;;;;;;;;;;;;;;;;;;4443260;32;20136;-77
2023/01/14 06:39:31;;;;;;;28.20;3.80;;;;;;;;;;4439591;32;19940;-78
2023/01/14 06:41:56;;;;;;;;;;;;;;;;;;4438699;32;20093;-79
2023/01/14 06:44:23;;;;;;;28.05;5.82;;;;;;;;;;4438330;32;20298;-80
2023/01/14 06:46:49;;;;;;;33.05;5.22;;;;;;;;;;4451902;32;20216;-78
2023/01/14 06:49:15;;;;;;;40.45;6.60;;;;;;;;;;4438280;32;20018;-78
2023/01/14 06:51:40;;;;;;;;;;;;;;;;;;4438598;32;20033;-78
2023/01/14 06:54:06;;;;;;;31.48;7.15;;;;;;;;;;4442819;32;20322;-78
2023/01/14 06:56:31;;;;;;;;;;;;;;;;;;4443725;32;20399;-77
2023/01/14 06:58:56;;;;;;;34.35;5.55;;;;;;;;;;4451210;32;19948;-76
2023/01/14 07:01:21;;;;;;;;;;;;;;;;;;4451902;32;20030;-75
2023/01/14 07:03:46;;;;;;;29.63;6.03;;;;;;;;;;4452340;32;19988;-75
2023/01/14 07:06:11;;;;;;;;;;;;;;;;;;4437886;32;20096;-75
2023/01/14 07:08:37;;;;;;;23.83;5.20;;;;;;;;;;4451142;32;20340;-74
2023/01/14 07:11:02;;;;;;;30.85;5.87;;;;;;;;;;4438422;32;20097;-74
2023/01/14 07:13:27;;;;;;;;;;;;;;;;;;4437385;32;20067;-75
2023/01/14 07:15:52;;;;;;;29.60;5.37;;;;;;;;;;4451400;32;19992;-74
2023/01/14 07:18:18;;;;;;;;;;;;;;;;;;4452160;32;20442;-74
2023/01/14 07:20:43;;;;;;;26.37;6.45;;;;;;;;;;4451041;32;19948;-74
2023/01/14 07:23:08;;;;;;;;;;;;;;;;;;4451773;32;20041;-74
2023/01/14 07:25:34;;;;;;;23.40;5.40;;;;;;;;;;4437708;32;19937;-74
2023/01/14 07:27:59;;;;;;;;;;;;;;;;;;4452514;32;20164;-74
2023/01/14 07:30:24;;;;;;;29.15;7.45;;;;;;;;;;4451367;32;19995;-74
2023/01/14 07:32:49;;;;;;;;;;;;;;;;;;4438852;32;20128;-75
2023/01/14 07:35:14;;;;;;;22.77;5.18;;;;;;;;;;4452073;32;19936;-74
2023/01/14 07:37:39;;;;;;;;;;;;;;;;;;4452793;32;20455;-74
2023/01/14 07:40:05;;;;;;;30.46;6.14;;;;;;;;;;4451106;32;19932;-74
2023/01/14 07:42:30;;;;;;;;;;;;;;;;;;4437917;32;20388;-74
2023/01/14 07:44:55;;;;;;;23.60;5.78;;;;;;;;;;4452526;32;19951;-73
2023/01/14 07:47:20;;;;;;;;;;;;;;;;;;4452877;32;20132;-75
2023/01/14 07:49:45;;;;;;;20.33;5.53;;;;;;;;;;4448037;32;19941;-74
2023/01/14 07:52:14;;;;;;;26.27;6.75;;;;;;;;;;4425077;32;20419;-74
2023/01/14 07:54:42;;;;;;;18.00;6.07;;;;;;;;;;4439019;32;20030;-74
2023/01/14 07:57:09;;;;;;;17.62;6.25;;;;;;;;;;4445367;32;20050;-74
2023/01/14 07:59:34;;;;;;;20.40;7.32;;;;;;;;;;4445300;32;20056;-74
2023/01/14 08:01:59;;;;;;;;;;;;;;;;;;4425097;32;20042;-74
2023/01/14 08:04:24;;;;;;;25.88;6.18;;;;;;;;;;4453553;32;19977;-74
2023/01/14 08:06:49;;;;;;;;;;;;;;;;;;4438718;32;20169;-74
2023/01/14 08:09:17;;;;;;;16.73;6.82;;;;;;;;;;4438050;32;19981;-74
2023/01/14 08:11:42;;;;;;;17.35;6.40;;;;;;;;;;4452694;32;20425;-74
2023/01/14 08:14:07;;;;;;;;;;;;;;;;;;4440804;32;20029;-74
2023/01/14 08:16:34;;;;;;;26.50;7.00;;;;;;;;;;4463496;32;19990;-73
2023/01/14 08:18:59;;;;;;;26.00;8.15;;;;;;;;;;4453349;32;20155;-73
2023/01/14 08:21:25;;;;;;;;;;;;;;;;;;4453734;32;20403;-74
2023/01/14 08:23:50;;;;;;;22.02;8.18;;;;;;;;;;4439141;32;19933;-74
2023/01/14 08:26:15;;;;;;;;;;;;;;;;;;4438889;32;20453;-73
2023/01/14 08:28:41;;;;;;;20.98;8.05;;;;;;;;;;4454136;32;19941;-74
2023/01/14 08:31:06;;;;;;;;;;;;;;;;;;4455833;32;20033;-74
2023/01/14 08:33:31;;;;;;;18.58;8.48;;;;;;;;;;4455233;32;19933;-73
2023/01/14 08:35:56;;;;;;;;;;;;;;;;;;4439588;32;20189;-73
2023/01/14 08:38:22;;;;;;;19.45;9.10;;;;;;;;;;4454594;32;19983;-73
2023/01/14 08:40:48;;;;;;;;;;;;;;;;;;4454201;32;20503;-73
2023/01/14 08:43:13;;;;;;;21.95;9.93;;;;;;;;;;4438786;32;19933;-73
2023/01/14 08:45:38;;;;;;;;;;;;;;;;;;4453234;32;20052;-73
2023/01/14 08:48:04;;;;;;;21.10;11.70;;;;;;;;;;4452955;32;19951;-73
2023/01/14 08:50:29;;;;;;;;;;;;;;;;;;4454865;32;20155;-73
2023/01/14 08:52:54;;;;;;;19.85;10.45;;;;;;;;;;4453597;32;19932;-73
2023/01/14 08:55:19;;;;;;;;;;;;;;;;;;4439503;32;20151;-72
2023/01/14 08:57:44;;;;;;;22.15;10.93;;;;;;;;;;4458258;32;20353;-73
2023/01/14 09:00:10;;;;;;;;;;;;;;;;;;4433442;32;20040;-73
2023/01/14 09:02:35;;;;;;;18.18;10.96;;;;;;;;;;4447526;32;19933;-72
2023/01/14 09:05:01;;;;;;;;;;;;;;;;;;4450764;32;20021;-73
2023/01/14 09:18:22;;;;;;;18.55;10.10;;;;;;;;;;4436807;32;20057;-72
2023/01/14 09:20:47;;;;;;;;;;;;;;;;;;4422819;32;20490;-73
2023/01/14 09:23:13;;;;;;;20.55;9.60;;;;;;;;;;4436320;32;19951;-72
2023/01/14 09:25:39;;;;;;;21.83;8.57;;;;;;;;;;4443061;32;20017;-71
2023/01/14 09:28:04;;;;;;;;;;;;;;;;;;4439282;32;20424;-74
2023/01/14 09:30:29;;;;;;;16.92;7.57;;;;;;;;;;4452752;32;20023;-72
2023/01/14 09:32:54;;;;;;;;;;;;;;;;;;4454313;32;20143;-74
2023/01/14 09:35:19;;;;;;;21.90;7.45;;;;;;;;;;4438552;32;19936;-73
2023/01/14 09:37:44;;;;;;;;;;;;;;;;;;4453086;32;20021;-77
2023/01/14 09:40:10;;;;;;;18.33;6.95;;;;;;;;;;4454503;32;19982;-72
2023/01/14 09:42:35;;;;;;;;;;;;;;;;;;4453656;32;20093;-74
2023/01/14 09:45:13;;;;;;;15.35;6.43;;;;;;;;;;4452294;32;19944;-73
2023/01/14 09:47:39;;;;;;;18.33;6.53;;;;;;;;;;4451521;32;20100;-74
2023/01/14 09:50:05;;;;;;;;;;;;;;;;;;4453697;32;20371;-73
2023/01/14 09:52:45;;;;;;;12.65;5.90;;;;;;;;;;4437257;32;19943;-74
2023/01/14 09:55:14;;;;;;;19.92;6.70;;;;;;;;;;4450964;32;20049;-74
2023/01/14 09:57:39;;;;;;;18.05;6.20;;;;;;;;;;4437456;32;20101;-75
2023/01/14 10:00:04;;;;;;;;;;;;;;;;;;4452124;32;20041;-74
2023/01/14 10:02:35;;;;;;;14.05;6.75;;;;;;;;;;4437511;32;20302;-75
2023/01/14 10:05:15;;;;;;;13.88;6.00;;;;;;;;;;4437345;32;20343;-74
2023/01/14 10:07:42;;;;;;;15.13;5.93;;;;;;;;;;4438129;32;20033;-77
2023/01/14 10:10:15;;;;;;;13.62;6.62;;;;;;;;;;4438077;32;20054;-76
2023/01/14 10:12:41;;;;;;;16.73;6.40;;;;;;;;;;4451794;32;20075;-75
2023/01/14 10:15:06;;;;;;;;;;;;;;;;;;4437627;32;20025;-75
2023/01/14 10:17:35;;;;;;;20.88;5.10;;;;;;;;;;4438186;32;19947;-74
2023/01/14 10:20:05;;;;;;;17.35;5.25;;;;;;;;;;4451275;32;20147;-76
2023/01/14 10:22:35;;;;;;;16.33;6.55;;;;;;;;;;4452110;32;20029;-74
2023/01/14 10:25:00;;;;;;;13.32;4.95;;;;;;;;;;4438610;32;20033;-74
2023/01/14 10:27:25;;;;;;;;;;;;;;;;;;4453386;32;20165;-74
2023/01/14 10:29:50;;;;;;;10.60;4.45;;;;;;;;;;4437130;32;19957;-74
2023/01/14 10:32:15;;;;;;;;;;;;;;;;;;4438900;32;20490;-74
2023/01/14 10:34:42;;;;;;;13.32;4.97;;;;;;;;;;4452172;32;20294;-74
2023/01/14 10:37:08;;;;;;;14.52;5.00;;;;;;;;;;4437322;32;20517;-74
2023/01/14 10:39:33;;;;;;;;;;;;;;;;;;4436843;32;20056;-74
2023/01/14 10:42:00;;;;;;;10.63;3.25;;;;;;;;;;4436586;32;19976;-74
2023/01/14 10:44:38;;;;;;;6.18;2.97;;;;;;;;;;4451232;32;20563;-73
2023/01/14 10:47:06;;;;;;;7.93;3.22;;;;;;;;;;4446261;32;20093;-75
2023/01/14 10:49:31;;;;;;;13.20;3.50;;;;;;;;;;4452727;32;20032;-75
2023/01/14 10:51:57;;;;;;;;;;;;;;;;;;4452216;32;20025;-78
2023/01/14 10:54:24;;;;;;;12.37;3.37;;;;;;;;;;4452421;32;20035;-76
2023/01/14 10:56:51;;;;;;;12.23;3.37;;;;;;;;;;4437123;32;20049;-76
2023/01/14 10:59:23;;;;;;;8.38;3.55;;;;;;;;;;4438791;32;20056;-76
2023/01/14 11:01:48;;;;;;;9.07;3.50;;;;;;;;;;4453809;32;20029;-75
2023/01/14 11:04:13;;;;;;;;;;;;;;;;;;4458195;32;20311;-76
2023/01/14 11:06:39;;;;;;;8.43;2.83;;;;;;;;;;4454804;32;20011;-76
2023/01/14 11:09:04;;;;;;;;;;;;;;;;;;4437797;32;20466;-76
2023/01/14 11:11:37;;;;;;;10.00;3.08;;;;;;;;;;4438698;32;20326;-77
2023/01/14 11:14:17;;;;;;;9.68;2.75;;;;;;;;;;4454403;32;20078;-78
2023/01/14 11:16:42;;;;;;;9.82;3.83;;;;;;;;;;4451931;32;20017;-77
2023/01/14 11:19:07;;;;;;;;;;;;;;;;;;4437471;32;20048;-77
2023/01/14 11:21:34;;;;;;;7.40;3.05;;;;;;;;;;4436850;32;19944;-76
2023/01/14 11:24:07;;;;;;;7.30;4.05;;;;;;;;;;4437970;32;20156;-75
2023/01/14 11:26:38;;;;;;;8.85;2.87;;;;;;;;;;4447092;32;20025;-77
2023/01/14 11:29:23;;;;;;;3.17;2.35;;;;;;;;;;4454414;32;20041;-77
2023/01/14 11:31:50;;;;;;;6.22;2.55;;;;;;;;;;4432229;32;20041;-76
2023/01/14 11:34:19;;;;;;;4.65;2.67;;;;;;;;;;4448999;32;20037;-76
2023/01/14 11:36:44;;;;;;;10.38;2.90;;;;;;;;;;4445204;32;20082;-77
2023/01/14 11:39:09;;;;;;;;;;;;;;;;;;4441262;32;20103;-76
2023/01/14 11:41:38;;;;;;;3.83;2.22;;;;;;;;;;4454608;32;19980;-77
2023/01/14 11:44:10;;;;;;;4.30;2.50;;;;;;;;;;4438155;32;20037;-76
2023/01/14 11:46:36;;;;;;;6.97;2.30;;;;;;;;;;4442611;32;20063;-75
2023/01/14 11:49:17;;;;;;;6.10;2.20;;;;;;;;;;4423677;32;20076;-77
2023/01/14 11:51:55;;;;;;;3.97;1.98;;;;;;;;;;4424317;32;20021;-76
2023/01/14 11:54:20;;;;;;;4.93;2.22;;;;;;;;;;4437882;32;20030;-77
2023/01/14 11:56:46;;;;;;;;;;;;;;;;;;4442527;32;20441;-79
2023/01/14 11:59:14;;;;;;;2.92;2.08;;;;;;;;;;4453896;32;19942;-79
2023/01/14 12:01:42;;;;;;;6.10;2.20;;;;;;;;;;4439847;32;20135;-77
2023/01/14 12:04:21;;;;;;;4.50;2.12;;;;;;;;;;4452279;32;20052;-76
2023/01/14 12:07:02;;;;;;;8.20;2.65;;;;;;;;;;4425238;32;20101;-72
2023/01/14 12:09:33;;;;;;;8.98;2.12;;;;;;;;;;4441184;32;20101;-74
2023/01/14 12:12:02;;;;;;;6.80;2.78;;;;;;;;;;4454911;32;20052;-73
2023/01/14 12:17:28;;;;;;;5.18;1.95;;;;;;;;;;4453666;32;20074;-72
2023/01/14 12:19:58;;;;;;;5.70;2.10;;;;;;;;;;4448391;32;20025;-72
2023/01/14 12:22:43;;;;;;;4.87;1.87;;;;;;;;;;4438037;32;20404;-72
2023/01/14 12:25:14;;;;;;;5.25;2.47;;;;;;;;;;4444128;32;20025;-73
2023/01/14 12:27:50;;;;;;;8.82;2.60;;;;;;;;;;4457553;32;20156;-71
2023/01/14 12:30:15;;;;;;;5.43;2.05;;;;;;;;;;4459647;32;20083;-71
2023/01/14 12:32:40;;;;;;;;;;;;;;;;;;4442866;32;20029;-72
2023/01/14 12:35:07;;;;;;;4.30;2.17;;;;;;;;;;4455245;32;19937;-71
2023/01/14 12:37:42;;;;;;;6.03;2.20;;;;;;;;;;4453211;32;20090;-71
2023/01/14 12:46:05;;;;;;;;;;;;;;;;;;4453172;32;20094;-72
2023/01/14 12:48:31;;;;;;;4.97;2.08;;;;;;;;;;4438737;32;19976;-71
2023/01/14 12:50:56;;;;;;;;;;;;;;;;;;4453702;32;20154;-72
2023/01/14 12:53:23;;;;;;;7.97;2.25;;;;;;;;;;4445072;32;19940;-72
2023/01/14 12:55:49;;;;;;;4.57;2.62;;;;;;;;;;4446687;32;20029;-71
2023/01/14 12:58:20;;;;;;;6.35;2.25;;;;;;;;;;4439383;32;20049;-72
2023/01/14 13:00:50;;;;;;;2.20;2.00;;;;;;;;;;4453035;32;20021;-72
2023/01/14 13:03:21;;;;;;;4.30;2.70;;;;;;;;;;4452225;32;20038;-72
2023/01/14 13:05:46;;;;;;;12.02;2.83;;;;;;;;;;4452967;32;20066;-70
2023/01/14 13:08:11;;;;;;;;;;;;;;;;;;4453674;32;20422;-72
2023/01/14 13:10:38;;;;;;;8.65;2.45;;;;;;;;;;4438619;32;19941;-70
2023/01/14 13:13:04;;;;;;;8.43;2.90;;;;;;;;;;4451988;32;20466;-72
2023/01/14 13:15:31;;;;;;;3.25;2.58;;;;;;;;;;4452596;32;20065;-73
2023/01/14 13:17:58;;;;;;;6.12;2.60;;;;;;;;;;4438162;32;20034;-72
2023/01/14 13:20:29;;;;;;;3.60;2.60;;;;;;;;;;4450497;32;20029;-72
2023/01/14 13:22:58;;;;;;;7.00;2.35;;;;;;;;;;4437188;32;20049;-72
2023/01/14 13:25:35;;;;;;;4.72;2.50;;;;;;;;;;4445046;32;20088;-73
2023/01/14 13:28:02;;;;;;;5.07;2.80;;;;;;;;;;4452402;32;20088;-72
2023/01/14 13:30:27;;;;;;;5.37;2.47;;;;;;;;;;4427100;32;20029;-72
2023/01/14 13:32:52;;;;;;;;;;;;;;;;;;4423777;32;20377;-72
2023/01/14 13:35:18;;;;;;;5.50;3.20;;;;;;;;;;4437832;32;20279;-72
2023/01/14 13:37:43;;;;;;;;;;;;;;;;;;4437996;32;20125;-71
2023/01/14 13:40:15;;;;;;;3.28;2.58;;;;;;;;;;4436612;32;20428;-72
2023/01/14 13:42:40;;;;;;;9.63;2.65;;;;;;;;;;4435106;32;20061;-72
2023/01/14 13:45:05;;;;;;;;;;;;;;;;;;4436336;32;20105;-72
2023/01/14 13:47:35;;;;;;;5.00;2.83;;;;;;;;;;4435726;32;19985;-73
2023/01/14 13:50:03;;;;;;;4.05;2.65;;;;;;;;;;4438107;32;20174;-72
2023/01/14 13:52:30;;;;;;;4.43;2.30;;;;;;;;;;4456405;32;20069;-73
2023/01/14 13:54:57;;;;;;;7.22;3.87;;;;;;;;;;4462800;32;20108;-72
2023/01/14 13:57:40;;;;;;;7.28;3.75;;;;;;;;;;4445604;32;20052;-72
2023/01/14 14:00:17;;;;;;;6.12;2.90;;;;;;;;;;4436821;32;20025;-72
2023/01/14 14:02:49;;;;;;;4.95;2.35;;;;;;;;;;4422113;32;20033;-72
2023/01/14 14:05:19;;;;;;;7.50;2.95;;;;;;;;;;4436156;32;20026;-73
2023/01/14 14:07:44;;;;;;;4.72;3.00;;;;;;;;;;4437899;32;20041;-72
2023/01/14 14:10:09;;;;;;;;;;;;;;;;;;4422231;32;20069;-72
2023/01/14 14:15:21;;;;;;;4.45;2.90;;;;;;;;;;4436401;32;20048;-72
2023/01/14 14:17:50;;;;;;;6.30;3.03;;;;;;;;;;4435961;32;20026;-73
2023/01/14 14:20:17;;;;;;;7.82;3.55;;;;;;;;;;4422326;32;20391;-73
2023/01/14 14:22:45;;;;;;;8.02;3.53;;;;;;;;;;4422032;32;20037;-72
2023/01/14 14:25:24;;;;;;;6.55;2.97;;;;;;;;;;4438443;32;20404;-73
2023/01/14 14:27:50;;;;;;;7.05;3.40;;;;;;;;;;4423509;32;20336;-73
2023/01/14 14:30:25;;;;;;;8.40;3.50;;;;;;;;;;4445633;32;20419;-73
2023/01/14 14:32:50;;;;;;;12.48;5.90;;;;;;;;;;4437200;32;20471;-73
2023/01/14 14:35:15;;;;;;;;;;;;;;;;;;4422081;32;20033;-73
2023/01/14 14:37:48;;;;;;;5.80;4.05;;;;;;;;;;4421805;32;20070;-73
2023/01/14 14:40:25;;;;;;;14.87;6.25;;;;;;;;;;4424369;32;20158;-74
2023/01/14 14:42:51;;;;;;;9.85;5.93;;;;;;;;;;4451421;32;20069;-71
2023/01/14 14:45:16;;;;;;;;;;;;;;;;;;4450587;32;20044;-71
2023/01/14 14:47:42;;;;;;;5.30;3.03;;;;;;;;;;4432266;32;19941;-72
2023/01/14 14:50:16;;;;;;;5.80;3.25;;;;;;;;;;4446924;32;20030;-72
2023/01/14 14:52:41;;;;;;;4.87;2.65;;;;;;;;;;4451394;32;20021;-72
2023/01/14 14:55:06;;;;;;;;;;;;;;;;;;4451467;32;20463;-73
2023/01/14 14:57:33;;;;;;;5.12;2.42;;;;;;;;;;4436838;32;19964;-72
2023/01/14 15:00:04;;;;;;;5.15;2.10;;;;;;;;;;4450732;32;20410;-71
2023/01/14 15:02:38;;;;;;;6.90;3.17;;;;;;;;;;4450465;32;20072;-73
2023/01/14 15:05:04;;;;;;;5.05;2.60;;;;;;;;;;4442483;32;20463;-73
2023/01/14 15:07:30;;;;;;;6.55;3.67;;;;;;;;;;4433977;32;20045;-73
2023/01/14 15:09:56;;;;;;;4.12;2.87;;;;;;;;;;4436556;32;20025;-73
2023/01/14 15:12:22;;;;;;;5.53;3.62;;;;;;;;;;4436496;32;20098;-73
2023/01/14 15:14:47;;;;;;;;;;;;;;;;;;4435495;32;20388;-73
2023/01/14 15:17:17;;;;;;;7.55;3.80;;;;;;;;;;4447713;32;19932;-71
2023/01/14 15:19:42;;;;;;;4.40;2.50;;;;;;;;;;4444569;32;20081;-73
2023/01/14 15:22:07;;;;;;;;;;;;;;;;;;4435702;32;20029;-73
2023/01/14 15:24:33;;;;;;;3.28;2.28;;;;;;;;;;4425916;32;19951;-73
2023/01/14 15:26:59;;;;;;;;;;;;;;;;;;4441302;32;20358;-73
2023/01/14 15:29:25;;;;;;;4.90;2.87;;;;;;;;;;4428508;32;19949;-73
2023/01/14 15:31:50;;;;;;;3.42;2.95;;;;;;;;;;4437445;32;20053;-75
2023/01/14 15:34:15;;;;;;;;;;;;;;;;;;4447125;32;20063;-73
2023/01/14 15:36:43;;;;;;;4.30;2.78;;;;;;;;;;4450269;32;19939;-72
2023/01/14 15:39:17;;;;;;;4.55;3.03;;;;;;;;;;4452366;32;20022;-72
2023/01/14 15:41:56;;;;;;;5.28;3.00;;;;;;;;;;4450523;32;20029;-72
2023/01/14 15:44:27;;;;;;;7.87;4.45;;;;;;;;;;4436565;32;20025;-72
2023/01/14 15:46:53;;;;;;;7.82;4.30;;;;;;;;;;4438516;32;20068;-72
2023/01/14 15:49:18;;;;;;;;;;;;;;;;;;4449225;32;20094;-74
2023/01/14 15:51:46;;;;;;;4.18;2.80;;;;;;;;;;4437620;32;20059;-72
2023/01/14 15:54:30;;;;;;;2.97;2.20;;;;;;;;;;4436897;32;20030;-72